createdAt,value
2023-05-14T00:00:19.231Z,9.45
2023-05-14T00:02:45.945Z,9.07
2023-05-14T00:05:12.458Z,10.25
2023-05-14T00:07:38.846Z,9.53
2023-05-14T00:10:05.633Z,9.48
2023-05-14T00:12:32.119Z,9.68
2023-05-14T00:14:58.427Z,9.48
2023-05-14T00:17:24.791Z,10.30
2023-05-14T00:19:51.158Z,10.07
2023-05-14T00:22:17.507Z,9.75
2023-05-14T00:24:43.909Z,10.00
2023-05-14T00:27:10.267Z,10.30
2023-05-14T00:29:36.578Z,10.27
2023-05-14T00:32:03.696Z,10.40
2023-05-14T00:34:30.076Z,9.90
2023-05-14T00:36:56.418Z,10.00
2023-05-14T00:39:22.720Z,9.45
2023-05-14T00:41:49.776Z,9.38
2023-05-14T00:44:16.151Z,9.40
2023-05-14T00:46:43.605Z,9.88
2023-05-14T00:49:10.648Z,9.73
2023-05-14T00:51:37.148Z,8.93
2023-05-14T00:54:03.751Z,9.15
2023-05-14T00:56:30.204Z,9.33
2023-05-14T00:58:56.538Z,9.48
2023-05-14T01:01:23.089Z,9.50
2023-05-14T01:03:49.932Z,9.27
2023-05-14T01:06:36.926Z,8.77
2023-05-14T01:09:08.391Z,9.43
2023-05-14T01:12:05.586Z,9.90
2023-05-14T01:14:52.322Z,9.88
2023-05-14T01:17:20.250Z,8.90
2023-05-14T01:19:48.372Z,9.40
2023-05-14T01:22:14.784Z,9.03
2023-05-14T01:24:41.140Z,10.05
2023-05-14T01:27:31.590Z,9.18
2023-05-14T01:30:13.786Z,8.45
2023-05-14T01:32:41.907Z,8.88
2023-05-14T01:35:09.701Z,8.57
2023-05-14T01:37:36.700Z,8.98
2023-05-14T01:40:04.424Z,9.40
2023-05-14T01:42:31.175Z,9.77
2023-05-14T01:44:57.913Z,9.57
2023-05-14T01:47:24.406Z,9.57
2023-05-14T01:49:50.913Z,9.50
2023-05-14T01:52:20.850Z,9.90
2023-05-14T01:54:48.474Z,10.05
2023-05-14T01:57:14.815Z,9.63
2023-05-14T01:59:41.140Z,9.37
2023-05-14T02:02:07.499Z,9.90
2023-05-14T02:04:33.823Z,9.88
2023-05-14T02:07:00.388Z,9.45
2023-05-14T02:09:26.725Z,9.65
2023-05-14T02:11:53.037Z,9.80
2023-05-14T02:14:19.347Z,10.77
2023-05-14T02:16:45.749Z,9.40
2023-05-14T02:19:12.220Z,9.82
2023-05-14T02:21:38.621Z,9.40
2023-05-14T02:24:05.132Z,9.07
2023-05-14T02:26:31.460Z,9.52
2023-05-14T02:28:58.086Z,9.57
2023-05-14T02:31:24.690Z,9.40
2023-05-14T02:33:51.205Z,9.70
2023-05-14T02:36:17.561Z,9.00
2023-05-14T02:38:43.952Z,9.65
2023-05-14T02:41:10.282Z,9.98
2023-05-14T02:43:36.640Z,9.10
2023-05-14T02:46:03.647Z,9.77
2023-05-14T02:48:30.028Z,10.40
2023-05-14T02:50:56.358Z,10.20
2023-05-14T02:53:22.714Z,9.52
2023-05-14T02:55:49.098Z,9.13
2023-05-14T02:58:15.851Z,8.75
2023-05-14T03:00:42.236Z,8.93
2023-05-14T03:03:08.969Z,9.60
2023-05-14T03:05:35.794Z,8.95
2023-05-14T03:08:02.323Z,8.80
2023-05-14T03:10:28.651Z,10.10
2023-05-14T03:12:55.013Z,9.13
2023-05-14T03:15:21.410Z,9.05
2023-05-14T03:17:47.786Z,8.88
2023-05-14T03:20:14.221Z,9.48
2023-05-14T03:22:40.641Z,8.93
2023-05-14T03:25:07.344Z,9.00
2023-05-14T03:27:34.505Z,9.07
2023-05-14T03:30:01.069Z,9.52
2023-05-14T03:32:27.605Z,8.90
2023-05-14T03:34:53.980Z,9.02
2023-05-14T03:37:20.350Z,9.40
2023-05-14T03:39:46.667Z,9.60
2023-05-14T03:42:13.090Z,9.65
2023-05-14T03:44:39.445Z,8.98
2023-05-14T03:47:05.985Z,9.40
2023-05-14T03:49:32.343Z,10.07
2023-05-14T03:51:59.363Z,9.10
2023-05-14T03:54:26.488Z,9.00
2023-05-14T03:56:52.843Z,9.45
2023-05-14T03:59:19.178Z,9.75
2023-05-14T04:01:45.548Z,9.53
2023-05-14T04:04:12.036Z,8.90
2023-05-14T04:06:39.522Z,9.02
2023-05-14T04:09:05.866Z,8.93
2023-05-14T04:11:32.205Z,8.50
2023-05-14T04:13:58.736Z,9.20
2023-05-14T04:16:25.074Z,8.75
2023-05-14T04:18:51.509Z,8.70
2023-05-14T04:21:17.898Z,8.73
2023-05-14T04:23:44.466Z,8.52
2023-05-14T04:26:11.183Z,9.30
2023-05-14T04:28:37.551Z,8.30
2023-05-14T04:31:04.299Z,8.98
2023-05-14T04:33:30.976Z,8.65
2023-05-14T04:35:57.457Z,9.27
2023-05-14T04:38:23.774Z,8.23
2023-05-14T04:40:50.178Z,8.30
2023-05-14T04:43:17.450Z,8.45
2023-05-14T04:45:43.791Z,8.57
2023-05-14T04:48:10.400Z,9.00
2023-05-14T04:50:36.864Z,8.10
2023-05-14T04:53:03.176Z,8.50
2023-05-14T04:55:29.616Z,7.90
2023-05-14T04:57:56.022Z,8.15
2023-05-14T05:00:23.015Z,7.88
2023-05-14T05:02:49.619Z,7.63
2023-05-14T05:05:16.027Z,7.68
2023-05-14T05:07:42.429Z,7.40
2023-05-14T05:10:09.205Z,7.57
2023-05-14T05:12:35.783Z,7.75
2023-05-14T05:15:02.331Z,7.70
2023-05-14T05:17:29.227Z,7.95
2023-05-14T05:19:55.648Z,7.32
2023-05-14T05:22:22.103Z,7.22
2023-05-14T05:24:49.959Z,7.75
2023-05-14T05:27:16.591Z,7.13
2023-05-14T05:29:44.141Z,7.38
2023-05-14T05:32:10.616Z,6.90
2023-05-14T05:34:37.096Z,7.18
2023-05-14T05:37:03.702Z,7.80
2023-05-14T05:39:34.571Z,7.40
2023-05-14T05:42:02.335Z,6.82
2023-05-14T05:44:28.713Z,7.30
2023-05-14T05:46:57.079Z,7.15
2023-05-14T05:49:23.871Z,7.75
2023-05-14T05:51:50.314Z,7.23
2023-05-14T05:54:16.644Z,8.00
2023-05-14T05:56:43.206Z,7.68
2023-05-14T05:59:09.926Z,7.00
2023-05-14T06:01:36.667Z,7.32
2023-05-14T06:04:04.393Z,7.40
2023-05-14T06:06:32.576Z,7.68
2023-05-14T06:08:59.120Z,7.63
2023-05-14T06:11:25.531Z,6.63
2023-05-14T06:13:51.837Z,7.15
2023-05-14T06:16:18.388Z,7.83
2023-05-14T06:18:44.821Z,7.70
2023-05-14T06:21:11.159Z,7.60
2023-05-14T06:23:37.491Z,7.25
2023-05-14T06:26:04.122Z,7.13
2023-05-14T06:28:30.430Z,7.37
2023-05-14T06:30:56.740Z,6.90
2023-05-14T06:33:29.679Z,7.32
2023-05-14T06:36:04.442Z,7.80
2023-05-14T06:38:30.799Z,7.13
2023-05-14T06:40:57.145Z,7.03
2023-05-14T06:43:23.574Z,7.00
2023-05-14T06:45:50.887Z,6.18
2023-05-14T06:48:21.011Z,6.57
2023-05-14T06:50:48.876Z,5.75
2023-05-14T06:53:15.497Z,6.13
2023-05-14T06:55:41.898Z,6.18
2023-05-14T06:58:08.338Z,6.45
2023-05-14T07:00:35.013Z,6.68
2023-05-14T07:03:01.407Z,6.18
2023-05-14T07:05:27.957Z,6.33
2023-05-14T07:07:54.328Z,5.88
2023-05-14T07:10:20.786Z,6.22
2023-05-14T07:12:47.735Z,6.68
2023-05-14T07:15:14.078Z,6.07
2023-05-14T07:17:40.791Z,5.67
2023-05-14T07:20:07.844Z,5.40
2023-05-14T07:22:34.180Z,5.50
2023-05-14T07:25:00.604Z,5.30
2023-05-14T07:27:27.012Z,5.20
2023-05-14T07:29:53.569Z,5.97
2023-05-14T07:32:19.874Z,6.43
2023-05-14T07:34:46.295Z,5.70
2023-05-14T07:37:12.713Z,5.90
2023-05-14T07:39:39.098Z,5.28
2023-05-14T07:42:05.653Z,5.03
2023-05-14T07:44:32.039Z,5.90
2023-05-14T07:46:58.426Z,5.68
2023-05-14T07:49:25.047Z,6.50
2023-05-14T07:51:51.389Z,6.60
2023-05-14T07:54:17.732Z,7.00
2023-05-14T07:56:44.434Z,6.63
2023-05-14T07:59:10.804Z,7.18
2023-05-14T08:01:39.154Z,6.32
2023-05-14T08:04:06.078Z,6.90
2023-05-14T08:06:32.513Z,6.73
2023-05-14T08:08:58.855Z,6.68
2023-05-14T08:11:26.013Z,6.78
2023-05-14T08:13:52.384Z,7.75
2023-05-14T08:16:18.760Z,7.20
2023-05-14T08:18:45.291Z,7.50
2023-05-14T08:21:11.660Z,7.28
2023-05-14T08:23:38.135Z,6.68
2023-05-14T08:26:04.592Z,6.13
2023-05-14T08:28:30.988Z,6.72
2023-05-14T08:30:57.310Z,7.40
2023-05-14T08:33:23.651Z,7.05
2023-05-14T08:35:52.832Z,7.70
2023-05-14T08:38:19.157Z,7.05
2023-05-14T08:40:55.697Z,7.88
2023-05-14T08:43:26.406Z,7.03
2023-05-14T08:45:58.228Z,7.22
2023-05-14T08:48:28.147Z,7.38
2023-05-14T08:50:54.996Z,6.80
2023-05-14T08:53:21.348Z,7.40
2023-05-14T08:55:50.614Z,6.57
2023-05-14T08:58:17.131Z,6.47
2023-05-14T09:00:43.466Z,6.25
2023-05-14T09:03:10.162Z,6.65
2023-05-14T09:05:37.211Z,6.45
2023-05-14T09:08:03.606Z,6.80
2023-05-14T09:10:29.928Z,6.60
2023-05-14T09:12:56.266Z,6.50
2023-05-14T09:15:27.544Z,6.07
2023-05-14T09:17:53.991Z,6.40
2023-05-14T09:20:20.922Z,5.70
2023-05-14T09:22:47.373Z,6.25
2023-05-14T09:25:13.744Z,6.05
2023-05-14T09:27:40.212Z,5.93
2023-05-14T09:30:11.795Z,5.38
2023-05-14T09:32:46.084Z,6.00
2023-05-14T09:35:20.736Z,5.90
2023-05-14T09:37:52.606Z,5.45
2023-05-14T09:40:20.606Z,5.90
2023-05-14T09:42:48.971Z,5.40
2023-05-14T09:45:15.938Z,4.90
2023-05-14T09:47:42.825Z,5.78
2023-05-14T09:50:09.589Z,5.75
2023-05-14T09:52:37.160Z,6.38
2023-05-14T09:55:04.059Z,6.03
2023-05-14T09:57:30.849Z,6.13
2023-05-14T09:59:57.180Z,6.18
2023-05-14T10:02:26.422Z,6.00
2023-05-14T10:04:54.556Z,5.28
2023-05-14T10:07:29.177Z,5.95
2023-05-14T10:10:01.588Z,5.43
2023-05-14T10:12:33.603Z,5.60
2023-05-14T10:15:03.555Z,5.70
2023-05-14T10:17:34.303Z,5.85
2023-05-14T10:20:02.603Z,5.72
2023-05-14T10:22:33.583Z,5.80
2023-05-14T10:25:00.620Z,5.63
2023-05-14T10:27:27.440Z,5.15
2023-05-14T10:29:55.548Z,5.75
2023-05-14T10:32:25.060Z,5.40
2023-05-14T10:34:52.641Z,5.77
2023-05-14T10:37:21.634Z,6.10
2023-05-14T10:39:58.184Z,6.15
2023-05-14T10:42:27.714Z,6.18
2023-05-14T10:44:58.245Z,5.50
2023-05-14T10:47:26.604Z,5.97
2023-05-14T10:49:55.851Z,5.25
2023-05-14T10:52:22.980Z,5.00
2023-05-14T10:54:56.888Z,4.97
2023-05-14T10:57:27.146Z,5.55
2023-05-14T10:59:56.140Z,4.77
2023-05-14T11:02:25.534Z,5.45
2023-05-14T11:05:03.931Z,4.65
2023-05-14T11:07:36.622Z,5.47
2023-05-14T11:10:07.883Z,4.68
2023-05-14T11:12:36.221Z,5.47
2023-05-14T11:15:04.894Z,4.53
2023-05-14T11:17:31.996Z,4.75
2023-05-14T11:19:59.214Z,4.82
2023-05-14T11:22:25.775Z,5.30
2023-05-14T11:24:52.635Z,4.33
2023-05-14T11:27:19.405Z,4.88
2023-05-14T11:29:46.917Z,4.72
2023-05-14T11:32:14.493Z,4.25
2023-05-14T11:34:44.731Z,5.05
2023-05-14T11:37:12.896Z,4.50
2023-05-14T11:39:40.131Z,4.25
2023-05-14T11:42:16.693Z,4.63
2023-05-14T11:44:44.496Z,4.43
2023-05-14T11:47:11.720Z,5.28
2023-05-14T11:49:38.580Z,4.60
2023-05-14T11:52:06.641Z,3.95
2023-05-14T11:54:34.233Z,5.07
2023-05-14T11:57:02.561Z,4.20
2023-05-14T11:59:31.713Z,4.03
2023-05-14T12:02:02.375Z,4.07
2023-05-14T12:04:29.393Z,6.18
2023-05-14T12:06:58.580Z,4.65
2023-05-14T12:09:25.235Z,4.30
2023-05-14T12:11:52.492Z,4.80
2023-05-14T12:14:23.373Z,4.23
2023-05-14T12:16:51.340Z,4.47
2023-05-14T12:19:19.363Z,4.93
2023-05-14T12:21:47.987Z,4.38
2023-05-14T12:24:17.012Z,4.20
2023-05-14T12:26:50.761Z,4.33
2023-05-14T12:29:17.418Z,4.07
2023-05-14T12:31:48.305Z,3.80
2023-05-14T12:34:15.432Z,4.10
2023-05-14T12:36:42.217Z,5.20
2023-05-14T12:39:09.716Z,3.57
2023-05-14T12:41:36.885Z,4.45
2023-05-14T12:44:04.474Z,4.20
2023-05-14T12:46:30.951Z,4.18
2023-05-14T12:48:57.427Z,4.68
2023-05-14T12:51:23.957Z,4.27
2023-05-14T12:53:51.561Z,4.20
2023-05-14T12:56:17.967Z,4.00
2023-05-14T12:58:46.506Z,3.92
2023-05-14T13:01:12.897Z,3.75
2023-05-14T13:03:39.864Z,4.27
2023-05-14T13:06:06.449Z,4.30
2023-05-14T13:08:32.782Z,4.25
2023-05-14T13:10:59.121Z,4.05
2023-05-14T13:13:25.719Z,3.35
2023-05-14T13:15:53.361Z,4.27
2023-05-14T13:18:19.776Z,4.20
2023-05-14T13:20:47.429Z,4.10
2023-05-14T13:23:14.560Z,4.15
2023-05-14T13:25:41.018Z,4.72
2023-05-14T13:28:08.423Z,4.30
2023-05-14T13:30:34.744Z,4.25
2023-05-14T13:33:01.190Z,3.55
2023-05-14T13:35:27.789Z,4.00
2023-05-14T13:37:54.116Z,3.92
2023-05-14T13:40:20.913Z,4.33
2023-05-14T13:42:47.222Z,4.00
2023-05-14T13:45:13.625Z,3.00
2023-05-14T13:47:40.339Z,4.00
2023-05-14T13:50:07.307Z,3.85
2023-05-14T13:52:33.637Z,4.37
2023-05-14T13:55:00.018Z,3.83
2023-05-14T13:57:26.350Z,4.30
2023-05-14T13:59:52.699Z,3.78
2023-05-14T14:02:19.061Z,3.20
2023-05-14T14:04:45.449Z,3.50
2023-05-14T14:07:11.795Z,4.15
2023-05-14T14:09:38.145Z,4.55
2023-05-14T14:12:05.008Z,4.65
2023-05-14T14:14:31.514Z,4.07
2023-05-14T14:16:57.933Z,3.90
2023-05-14T14:19:24.419Z,3.67
2023-05-14T14:24:22.095Z,4.20
2023-05-14T14:26:48.602Z,3.17
2023-05-14T14:29:14.925Z,3.60
2023-05-14T14:31:41.389Z,3.20
2023-05-14T14:34:07.790Z,3.70
2023-05-14T14:36:34.173Z,3.38
2023-05-14T14:39:00.514Z,3.05
2023-05-14T14:41:27.302Z,3.30
2023-05-14T14:43:53.793Z,2.97
2023-05-14T14:46:20.266Z,3.35
2023-05-14T14:48:46.677Z,4.05
2023-05-14T14:51:13.067Z,3.45
2023-05-14T14:53:40.487Z,3.30
2023-05-14T14:56:07.070Z,4.28
2023-05-14T14:58:33.583Z,2.83
2023-05-14T15:01:01.122Z,3.40
2023-05-14T15:03:27.905Z,3.30
2023-05-14T15:05:54.374Z,3.73
2023-05-14T15:08:26.711Z,3.75
2023-05-14T15:10:53.809Z,3.00
2023-05-14T15:13:20.566Z,3.00
2023-05-14T15:15:47.334Z,3.83
2023-05-14T15:18:13.726Z,3.63
2023-05-14T15:20:40.215Z,3.15
2023-05-14T15:23:06.670Z,3.72
2023-05-14T15:25:32.999Z,3.83
2023-05-14T15:27:59.348Z,3.50
2023-05-14T15:30:25.718Z,3.80
2023-05-14T15:32:52.237Z,3.25
2023-05-14T15:35:18.595Z,3.67
2023-05-14T15:37:45.016Z,4.53
2023-05-14T15:40:12.144Z,3.92
2023-05-14T15:42:41.904Z,3.83
2023-05-14T15:45:10.260Z,3.80
2023-05-14T15:47:36.607Z,3.58
2023-05-14T15:50:03.976Z,3.63
2023-05-14T15:52:30.369Z,3.50
2023-05-14T15:54:57.396Z,3.70
2023-05-14T15:57:24.045Z,3.80
2023-05-14T15:59:51.338Z,3.88
2023-05-14T16:02:18.782Z,3.33
2023-05-14T16:04:45.243Z,3.55
2023-05-14T16:07:14.739Z,4.97
2023-05-14T16:09:41.356Z,3.42
2023-05-14T16:12:08.361Z,3.42
2023-05-14T16:14:35.715Z,3.75
2023-05-14T16:17:02.194Z,3.58
2023-05-14T16:19:28.784Z,5.07
2023-05-14T16:21:55.217Z,3.70
2023-05-14T16:24:21.696Z,3.45
2023-05-14T16:26:48.087Z,4.35
2023-05-14T16:29:14.464Z,4.60
2023-05-14T16:31:40.860Z,4.80
2023-05-14T16:34:07.229Z,4.32
2023-05-14T16:36:33.592Z,4.03
2023-05-14T16:39:07.441Z,4.82
2023-05-14T16:41:35.642Z,4.65
2023-05-14T16:44:02.159Z,4.53
2023-05-14T16:46:29.272Z,4.47
2023-05-14T16:48:56.149Z,4.45
2023-05-14T16:51:22.740Z,4.13
2023-05-14T16:53:49.231Z,4.20
2023-05-14T16:56:15.824Z,4.27
2023-05-14T16:58:42.233Z,4.28
2023-05-14T17:01:09.808Z,3.50
2023-05-14T17:03:36.824Z,4.10
2023-05-14T17:06:04.496Z,3.90
2023-05-14T17:08:33.410Z,4.20
2023-05-14T17:10:59.862Z,4.13
2023-05-14T17:13:26.254Z,4.65
2023-05-14T17:15:52.719Z,3.97
2023-05-14T17:18:19.375Z,4.82
2023-05-14T17:20:45.992Z,5.20
2023-05-14T17:23:12.438Z,5.30
2023-05-14T17:25:38.870Z,5.63
2023-05-14T17:28:05.473Z,5.38
2023-05-14T17:30:32.008Z,6.20
2023-05-14T17:32:58.478Z,6.63
2023-05-14T17:35:25.704Z,6.90
2023-05-14T17:37:52.229Z,6.05
2023-05-14T17:40:18.620Z,6.18
2023-05-14T17:42:45.372Z,5.97
2023-05-14T17:45:13.048Z,6.30
2023-05-14T17:47:39.487Z,5.80
2023-05-14T17:50:06.602Z,5.68
2023-05-14T17:52:32.962Z,6.85
2023-05-14T17:54:59.339Z,6.18
2023-05-14T17:57:26.444Z,5.87
2023-05-14T17:59:52.763Z,5.85
2023-05-14T18:02:19.101Z,6.10
2023-05-14T18:04:46.544Z,6.05
2023-05-14T18:07:12.979Z,5.63
2023-05-14T18:09:39.317Z,5.67
2023-05-14T18:12:06.047Z,5.93
2023-05-14T18:14:32.358Z,5.93
2023-05-14T18:16:58.952Z,5.60
2023-05-14T18:19:25.508Z,5.70
2023-05-14T18:21:51.931Z,6.33
2023-05-14T18:24:18.279Z,5.93
2023-05-14T18:26:44.664Z,5.70
2023-05-14T18:29:11.016Z,5.15
2023-05-14T18:31:37.411Z,6.20
2023-05-14T18:34:03.744Z,5.67
2023-05-14T18:36:30.080Z,5.60
2023-05-14T18:38:56.438Z,5.30
2023-05-14T18:41:23.433Z,5.63
2023-05-14T18:43:49.914Z,5.43
2023-05-14T18:46:16.311Z,4.70
2023-05-14T18:48:42.738Z,5.18
2023-05-14T18:51:11.090Z,4.38
2023-05-14T18:53:37.471Z,4.78
2023-05-14T18:56:04.177Z,5.30
2023-05-14T18:58:30.506Z,5.03
2023-05-14T19:00:58.894Z,4.57
2023-05-14T19:03:25.934Z,5.00
2023-05-14T19:05:53.064Z,5.30
2023-05-14T19:08:19.465Z,5.10
2023-05-14T19:10:45.827Z,5.40
2023-05-14T19:13:12.159Z,5.47
2023-05-14T19:15:38.782Z,5.32
2023-05-14T19:18:05.349Z,5.15
2023-05-14T19:20:31.792Z,5.57
2023-05-14T19:22:58.133Z,5.73
2023-05-14T19:25:24.944Z,5.30
2023-05-14T19:27:53.458Z,5.20
2023-05-14T19:30:20.417Z,5.05
2023-05-14T19:32:46.851Z,5.35
2023-05-14T19:35:13.624Z,6.10
2023-05-14T19:37:40.247Z,6.15
2023-05-14T19:40:07.233Z,5.93
2023-05-14T19:42:33.568Z,5.82
2023-05-14T19:44:59.916Z,5.28
2023-05-14T19:47:27.433Z,4.53
2023-05-14T19:49:53.821Z,5.28
2023-05-14T19:52:20.212Z,5.47
2023-05-14T19:54:47.107Z,5.10
2023-05-14T19:57:13.446Z,5.07
2023-05-14T19:59:40.307Z,4.60
2023-05-14T20:02:07.636Z,4.82
2023-05-14T20:04:34.762Z,4.78
2023-05-14T20:07:01.482Z,4.93
2023-05-14T20:09:27.798Z,5.72
2023-05-14T20:11:54.117Z,4.93
2023-05-14T20:14:20.553Z,5.88
2023-05-14T20:16:47.248Z,5.53
2023-05-14T20:19:14.137Z,5.55
2023-05-14T20:21:40.578Z,5.45
2023-05-14T20:24:06.954Z,5.60
2023-05-14T20:26:33.268Z,5.25
2023-05-14T20:28:59.611Z,4.95
2023-05-14T20:31:25.987Z,5.30
2023-05-14T20:33:52.322Z,5.38
2023-05-14T20:36:19.088Z,5.47
2023-05-14T20:38:45.611Z,5.00
2023-05-14T20:41:12.036Z,5.45
2023-05-14T20:43:38.438Z,6.32
2023-05-14T20:46:07.083Z,5.47
2023-05-14T20:48:33.436Z,5.87
2023-05-14T20:50:59.992Z,5.75
2023-05-14T20:53:28.168Z,5.15
2023-05-14T20:55:54.493Z,5.75
2023-05-14T20:58:20.908Z,5.47
2023-05-14T21:00:47.376Z,5.80
2023-05-14T21:03:13.812Z,6.00
2023-05-14T21:05:41.446Z,5.78
2023-05-14T21:08:07.865Z,5.40
2023-05-14T21:10:34.256Z,5.65
2023-05-14T21:13:00.877Z,5.33
2023-05-14T21:15:27.536Z,6.10
2023-05-14T21:17:54.203Z,5.72
2023-05-14T21:20:20.763Z,5.60
2023-05-14T21:22:47.082Z,5.75
2023-05-14T21:25:13.423Z,6.10
2023-05-14T21:27:40.006Z,5.25
2023-05-14T21:30:06.992Z,5.40
2023-05-14T21:32:33.402Z,6.63
2023-05-14T21:34:59.756Z,6.13
2023-05-14T21:37:26.156Z,6.13
2023-05-14T21:39:52.651Z,5.90
2023-05-14T21:42:20.898Z,6.25
2023-05-14T21:44:47.409Z,5.75
2023-05-14T21:47:14.156Z,5.18
2023-05-14T21:49:41.559Z,6.00
2023-05-14T21:52:07.940Z,5.82
2023-05-14T21:54:34.306Z,5.78
2023-05-14T21:57:01.525Z,5.47
2023-05-14T21:59:27.855Z,7.40
2023-05-14T22:04:23.430Z,6.55
2023-05-14T22:06:49.908Z,5.18
2023-05-14T22:09:16.224Z,6.13
2023-05-14T22:11:42.632Z,6.28
2023-05-14T22:14:08.956Z,5.60
2023-05-14T22:16:35.389Z,5.60
2023-05-14T22:19:02.192Z,5.28
2023-05-14T22:21:28.772Z,6.10
2023-05-14T22:23:55.082Z,6.72
2023-05-14T22:26:21.659Z,6.30
2023-05-14T22:28:49.482Z,6.88
2023-05-14T22:31:15.954Z,5.88
2023-05-14T22:33:42.329Z,5.80
2023-05-14T22:36:09.258Z,5.05
2023-05-14T22:38:35.909Z,5.63
2023-05-14T22:41:02.299Z,5.57
2023-05-14T22:43:28.640Z,5.80
2023-05-14T22:45:55.532Z,5.97
2023-05-14T22:48:21.891Z,5.70
2023-05-14T22:50:48.207Z,6.60
2023-05-14T22:53:14.653Z,6.80
2023-05-14T22:55:40.982Z,6.22
2023-05-14T22:58:07.298Z,6.63
2023-05-14T23:00:33.708Z,6.38
2023-05-14T23:03:00.175Z,7.40
2023-05-14T23:05:26.902Z,7.00
2023-05-14T23:07:53.499Z,7.32
2023-05-14T23:10:19.905Z,6.95
2023-05-14T23:12:46.225Z,7.13
2023-05-14T23:15:12.581Z,6.70
2023-05-14T23:17:40.753Z,6.85
2023-05-14T23:20:10.406Z,7.13
2023-05-14T23:22:36.734Z,7.55
2023-05-14T23:25:03.622Z,6.95
2023-05-14T23:27:29.957Z,6.50
2023-05-14T23:29:56.338Z,7.07
2023-05-14T23:32:22.881Z,6.82
2023-05-14T23:34:49.234Z,7.25
2023-05-14T23:37:15.652Z,6.45
2023-05-14T23:39:42.675Z,7.53
2023-05-14T23:42:09.019Z,6.95
2023-05-14T23:44:35.344Z,7.28
2023-05-14T23:47:01.880Z,7.18
2023-05-14T23:49:28.284Z,7.20
2023-05-14T23:51:54.596Z,7.93
2023-05-14T23:54:21.386Z,7.70
2023-05-14T23:56:47.891Z,7.35
2023-05-14T23:59:14.337Z,6.82
